createdAt,value
2023-04-09T00:00:01.623Z,9.71
2023-04-09T00:02:41.247Z,9.68
2023-04-09T00:05:19.501Z,9.67
2023-04-09T00:08:01.577Z,9.69
2023-04-09T00:10:39.712Z,9.73
2023-04-09T00:13:22.766Z,9.76
2023-04-09T00:16:12.538Z,9.80
2023-04-09T00:18:52.206Z,9.81
2023-04-09T00:21:30.824Z,9.82
2023-04-09T00:24:10.978Z,9.80
2023-04-09T00:26:49.766Z,9.79
2023-04-09T00:29:28.851Z,9.77
2023-04-09T00:31:59.151Z,9.78
2023-04-09T00:34:39.096Z,9.76
2023-04-09T00:37:17.406Z,9.77
2023-04-09T00:39:48.272Z,9.79
2023-04-09T00:42:22.176Z,9.80
2023-04-09T00:44:53.967Z,9.84
2023-04-09T00:47:33.744Z,9.84
2023-04-09T00:50:06.384Z,9.79
2023-04-09T00:52:46.378Z,9.75
2023-04-09T00:55:25.386Z,9.71
2023-04-09T00:58:03.519Z,9.63
2023-04-09T01:00:42.137Z,9.58
2023-04-09T01:03:20.970Z,9.58
2023-04-09T01:06:24.143Z,9.55
2023-04-09T01:09:28.204Z,9.52
2023-04-09T01:12:47.977Z,9.37
2023-04-09T01:15:38.390Z,9.35
2023-04-09T01:18:59.821Z,9.28
2023-04-09T01:21:35.995Z,9.20
2023-04-09T01:24:37.400Z,9.16
2023-04-09T01:27:09.002Z,9.20
2023-04-09T01:29:53.552Z,9.26
2023-04-09T01:32:34.087Z,9.36
2023-04-09T01:35:13.232Z,9.36
2023-04-09T01:37:52.900Z,9.30
2023-04-09T01:40:31.986Z,9.27
2023-04-09T01:43:14.177Z,9.35
2023-04-09T01:45:47.472Z,9.41
2023-04-09T01:48:20.470Z,9.45
2023-04-09T01:50:56.308Z,9.42
2023-04-09T01:53:34.710Z,9.36
2023-04-09T01:56:06.508Z,9.36
2023-04-09T01:58:45.227Z,9.38
2023-04-09T02:01:56.896Z,9.45
2023-04-09T02:04:48.538Z,9.47
2023-04-09T02:07:56.255Z,9.45
2023-04-09T02:10:40.225Z,9.44
2023-04-09T02:13:21.820Z,9.51
2023-04-09T02:16:01.499Z,9.53
2023-04-09T02:18:40.784Z,9.52
2023-04-09T02:21:19.981Z,9.41
2023-04-09T02:23:51.524Z,9.46
2023-04-09T02:26:30.611Z,9.47
2023-04-09T02:29:00.888Z,9.47
2023-04-09T02:31:32.063Z,9.48
2023-04-09T02:34:12.182Z,9.53
2023-04-09T02:36:50.623Z,9.50
2023-04-09T02:39:28.653Z,9.47
2023-04-09T02:42:09.024Z,9.45
2023-04-09T02:44:48.137Z,9.46
2023-04-09T02:47:27.789Z,9.47
2023-04-09T02:50:07.067Z,9.50
2023-04-09T02:52:37.296Z,9.48
2023-04-09T02:55:16.056Z,9.44
2023-04-09T02:57:54.272Z,9.39
2023-04-09T03:00:33.073Z,9.35
2023-04-09T03:03:03.247Z,9.39
2023-04-09T03:05:38.393Z,9.43
2023-04-09T03:08:17.116Z,9.49
2023-04-09T03:10:54.620Z,9.49
2023-04-09T03:13:24.869Z,9.42
2023-04-09T03:16:05.162Z,9.35
2023-04-09T03:18:42.829Z,9.38
2023-04-09T03:21:20.302Z,9.39
2023-04-09T03:23:58.861Z,9.43
2023-04-09T03:26:29.236Z,9.50
2023-04-09T03:29:00.367Z,9.55
2023-04-09T03:31:38.651Z,9.50
2023-04-09T03:34:17.224Z,9.42
2023-04-09T03:36:55.533Z,9.31
2023-04-09T03:39:33.300Z,9.20
2023-04-09T03:42:13.077Z,9.09
2023-04-09T03:44:51.677Z,9.06
2023-04-09T03:47:30.107Z,9.06
2023-04-09T03:50:09.700Z,8.93
2023-04-09T03:52:47.422Z,8.67
2023-04-09T03:55:25.615Z,8.55
2023-04-09T03:58:03.620Z,8.52
2023-04-09T04:00:43.496Z,8.51
2023-04-09T04:03:22.012Z,8.61
2023-04-09T04:06:05.653Z,8.58
2023-04-09T04:08:44.885Z,8.59
2023-04-09T04:11:22.601Z,8.61
2023-04-09T04:14:00.879Z,8.62
2023-04-09T04:16:39.351Z,8.69
2023-04-09T04:19:10.029Z,8.73
2023-04-09T04:21:41.109Z,8.86
2023-04-09T04:24:19.991Z,8.86
2023-04-09T04:26:58.276Z,8.85
2023-04-09T04:29:38.035Z,8.88
2023-04-09T04:32:17.960Z,8.96
2023-04-09T04:34:50.679Z,8.98
2023-04-09T04:37:29.876Z,9.01
2023-04-09T04:40:13.178Z,9.00
2023-04-09T04:42:51.286Z,9.13
2023-04-09T04:45:29.847Z,9.24
2023-04-09T04:48:10.350Z,9.29
2023-04-09T04:50:49.562Z,9.28
2023-04-09T04:53:28.488Z,9.23
2023-04-09T04:56:07.154Z,9.25
2023-04-09T04:58:47.506Z,9.29
2023-04-09T05:01:24.176Z,9.30
2023-04-09T05:04:04.692Z,9.43
2023-04-09T05:06:43.382Z,9.46
2023-04-09T05:09:22.448Z,9.47
2023-04-09T05:12:01.515Z,9.40
2023-04-09T05:14:39.473Z,9.42
2023-04-09T05:17:20.282Z,9.47
2023-04-09T05:20:01.367Z,9.61
2023-04-09T05:22:39.369Z,9.67
2023-04-09T05:25:17.645Z,9.57
2023-04-09T05:27:47.965Z,9.52
2023-04-09T05:30:22.589Z,9.43
2023-04-09T05:32:53.324Z,9.38
2023-04-09T05:35:32.673Z,9.33
2023-04-09T05:38:15.246Z,9.40
2023-04-09T05:40:46.438Z,9.32
2023-04-09T05:43:17.358Z,9.30
2023-04-09T05:45:48.742Z,9.31
2023-04-09T05:48:23.325Z,9.26
2023-04-09T05:51:02.371Z,9.22
2023-04-09T05:53:40.912Z,9.21
2023-04-09T05:56:24.101Z,9.28
2023-04-09T05:59:01.807Z,9.35
2023-04-09T06:01:40.200Z,9.44
2023-04-09T06:04:19.385Z,9.73
2023-04-09T06:06:49.859Z,9.95
2023-04-09T06:09:28.909Z,10.10
2023-04-09T06:12:08.554Z,10.26
2023-04-09T06:14:49.006Z,10.43
2023-04-09T06:17:27.741Z,10.37
2023-04-09T06:19:57.859Z,10.44
2023-04-09T06:22:28.901Z,10.55
2023-04-09T06:25:04.674Z,10.61
2023-04-09T06:27:35.273Z,10.81
2023-04-09T06:30:15.359Z,11.00
2023-04-09T06:32:55.355Z,11.12
2023-04-09T06:35:27.445Z,11.13
2023-04-09T06:38:07.154Z,11.19
2023-04-09T06:40:40.127Z,11.17
2023-04-09T06:43:19.686Z,11.21
2023-04-09T06:45:49.837Z,11.33
2023-04-09T06:48:25.156Z,11.32
2023-04-09T06:50:56.024Z,11.42
2023-04-09T06:53:34.640Z,11.65
2023-04-09T06:56:13.278Z,11.88
2023-04-09T06:58:52.365Z,12.00
2023-04-09T07:01:32.162Z,12.05
2023-04-09T07:04:11.234Z,12.19
2023-04-09T07:06:49.166Z,12.34
2023-04-09T07:09:27.738Z,12.50
2023-04-09T07:12:06.236Z,12.25
2023-04-09T07:14:44.675Z,12.14
2023-04-09T07:17:23.086Z,12.30
2023-04-09T07:20:01.477Z,12.33
2023-04-09T07:22:40.339Z,12.56
2023-04-09T07:25:11.216Z,12.79
2023-04-09T07:27:46.419Z,12.89
2023-04-09T07:30:24.795Z,13.03
2023-04-09T07:33:03.674Z,13.05
2023-04-09T07:35:42.361Z,13.20
2023-04-09T07:38:20.928Z,13.23
2023-04-09T07:40:58.952Z,13.12
2023-04-09T07:43:37.636Z,13.21
2023-04-09T07:46:21.064Z,13.42
2023-04-09T07:49:00.183Z,13.67
2023-04-09T07:51:39.542Z,13.76
2023-04-09T07:54:21.526Z,13.81
2023-04-09T07:56:58.133Z,13.79
2023-04-09T07:59:36.996Z,13.46
2023-04-09T08:02:08.339Z,13.31
2023-04-09T08:04:47.405Z,13.48
2023-04-09T08:07:25.909Z,13.33
2023-04-09T08:10:05.081Z,13.23
2023-04-09T08:12:43.472Z,13.27
2023-04-09T08:15:22.314Z,13.38
2023-04-09T08:18:02.616Z,13.49
2023-04-09T08:20:45.737Z,13.77
2023-04-09T08:23:24.635Z,13.67
2023-04-09T08:26:03.642Z,13.74
2023-04-09T08:28:33.832Z,14.03
2023-04-09T08:31:10.042Z,14.16
2023-04-09T08:33:47.990Z,14.23
2023-04-09T08:36:26.684Z,14.30
2023-04-09T08:39:05.386Z,14.19
2023-04-09T08:41:47.751Z,13.98
2023-04-09T08:44:27.875Z,13.81
2023-04-09T08:47:10.506Z,13.73
2023-04-09T08:49:50.619Z,13.64
2023-04-09T08:52:32.992Z,13.78
2023-04-09T08:55:09.394Z,13.79
2023-04-09T08:57:48.531Z,13.68
2023-04-09T09:00:28.348Z,13.63
2023-04-09T09:03:11.965Z,13.63
2023-04-09T09:05:49.834Z,13.93
2023-04-09T09:08:31.205Z,14.04
2023-04-09T09:11:09.136Z,14.10
2023-04-09T09:13:48.393Z,14.37
2023-04-09T09:16:27.669Z,14.59
2023-04-09T09:19:04.530Z,14.47
2023-04-09T09:21:43.998Z,14.54
2023-04-09T09:24:25.829Z,14.54
2023-04-09T09:27:04.392Z,14.53
2023-04-09T09:29:45.849Z,14.21
2023-04-09T09:32:24.206Z,14.00
2023-04-09T09:35:10.179Z,14.28
2023-04-09T09:37:49.176Z,14.62
2023-04-09T09:40:30.818Z,15.02
2023-04-09T09:43:14.536Z,15.57
2023-04-09T09:45:50.602Z,15.91
2023-04-09T09:48:28.736Z,15.92
2023-04-09T09:51:12.961Z,15.83
2023-04-09T09:53:54.699Z,15.83
2023-04-09T09:56:36.358Z,15.73
2023-04-09T09:59:34.271Z,15.62
2023-04-09T10:02:27.222Z,15.56
2023-04-09T10:05:10.163Z,15.80
2023-04-09T10:07:50.114Z,15.85
2023-04-09T10:10:29.644Z,15.90
2023-04-09T10:13:15.846Z,15.78
2023-04-09T10:15:52.773Z,15.68
2023-04-09T10:18:33.809Z,15.73
2023-04-09T10:21:45.548Z,15.75
2023-04-09T10:24:24.660Z,15.57
2023-04-09T10:26:56.595Z,15.51
2023-04-09T10:29:44.517Z,15.42
2023-04-09T10:32:34.904Z,15.49
2023-04-09T10:35:12.186Z,15.58
2023-04-09T10:37:51.019Z,15.70
2023-04-09T10:40:30.348Z,15.86
2023-04-09T10:43:11.000Z,16.00
2023-04-09T10:45:54.631Z,16.01
2023-04-09T10:48:33.575Z,15.96
2023-04-09T10:51:27.404Z,15.81
2023-04-09T10:54:06.332Z,15.66
2023-04-09T10:56:36.751Z,15.54
2023-04-09T10:59:12.886Z,15.58
2023-04-09T11:01:54.901Z,15.73
2023-04-09T11:04:55.821Z,15.63
2023-04-09T11:07:37.862Z,15.76
2023-04-09T11:10:13.178Z,15.70
2023-04-09T11:12:54.193Z,15.73
2023-04-09T11:15:33.575Z,15.93
2023-04-09T11:18:16.409Z,16.08
2023-04-09T11:20:57.200Z,16.24
2023-04-09T11:23:36.309Z,16.41
2023-04-09T11:26:16.701Z,16.33
2023-04-09T11:28:58.533Z,16.58
2023-04-09T11:31:37.849Z,16.84
2023-04-09T11:34:17.661Z,16.57
2023-04-09T11:36:57.332Z,16.69
2023-04-09T11:39:38.299Z,16.72
2023-04-09T11:42:22.358Z,16.38
2023-04-09T11:45:01.619Z,16.34
2023-04-09T11:47:42.162Z,16.46
2023-04-09T11:50:21.553Z,16.39
2023-04-09T11:53:00.287Z,15.98
2023-04-09T11:55:38.728Z,16.04
2023-04-09T11:58:16.927Z,16.14
2023-04-09T12:00:47.650Z,16.36
2023-04-09T12:03:19.246Z,16.55
2023-04-09T12:05:55.026Z,16.90
2023-04-09T12:08:35.323Z,17.14
2023-04-09T12:11:16.810Z,16.98
2023-04-09T12:13:59.974Z,16.83
2023-04-09T12:16:36.390Z,16.72
2023-04-09T12:19:15.021Z,16.72
2023-04-09T12:21:52.477Z,16.83
2023-04-09T12:24:34.619Z,16.97
2023-04-09T12:27:14.067Z,17.41
2023-04-09T12:29:52.621Z,17.63
2023-04-09T12:32:31.682Z,17.48
2023-04-09T12:35:11.602Z,17.60
2023-04-09T12:37:50.745Z,17.34
2023-04-09T12:40:30.024Z,17.19
2023-04-09T12:43:00.806Z,17.09
2023-04-09T12:45:40.636Z,16.97
2023-04-09T12:48:19.303Z,16.82
2023-04-09T12:50:57.694Z,16.70
2023-04-09T12:53:38.472Z,16.54
2023-04-09T12:56:17.899Z,16.44
2023-04-09T12:58:57.107Z,16.35
2023-04-09T13:01:36.169Z,16.11
2023-04-09T13:04:15.725Z,15.86
2023-04-09T13:06:55.888Z,15.50
2023-04-09T13:09:26.261Z,15.08
2023-04-09T13:11:58.027Z,14.66
2023-04-09T13:14:36.819Z,14.33
2023-04-09T13:17:15.789Z,14.11
2023-04-09T13:19:54.757Z,13.96
2023-04-09T13:22:33.477Z,13.82
2023-04-09T13:25:15.089Z,13.72
2023-04-09T13:27:53.636Z,13.68
2023-04-09T13:30:32.764Z,13.59
2023-04-09T13:33:12.634Z,13.46
2023-04-09T13:35:51.601Z,13.46
2023-04-09T13:38:30.652Z,13.49
2023-04-09T13:41:10.723Z,13.50
2023-04-09T13:43:49.322Z,13.50
2023-04-09T13:46:28.428Z,13.48
2023-04-09T13:49:07.748Z,13.46
2023-04-09T13:51:46.091Z,13.35
2023-04-09T13:54:24.303Z,13.24
2023-04-09T13:57:02.284Z,13.17
2023-04-09T13:59:42.682Z,13.11
2023-04-09T14:02:21.711Z,13.07
2023-04-09T14:04:57.558Z,13.06
2023-04-09T14:07:27.789Z,13.04
2023-04-09T14:09:59.473Z,13.02
2023-04-09T14:12:38.533Z,13.01
2023-04-09T14:15:17.598Z,12.96
2023-04-09T14:17:48.058Z,12.94
2023-04-09T14:20:29.328Z,12.98
2023-04-09T14:23:09.172Z,12.98
2023-04-09T14:25:48.889Z,13.11
2023-04-09T14:28:27.708Z,13.27
2023-04-09T14:31:06.585Z,13.36
2023-04-09T14:33:45.739Z,13.36
2023-04-09T14:36:24.077Z,13.37
2023-04-09T14:39:02.975Z,13.42
2023-04-09T14:41:41.787Z,13.44
2023-04-09T14:44:20.554Z,13.44
2023-04-09T14:47:00.197Z,13.38
2023-04-09T14:49:39.042Z,13.24
2023-04-09T14:52:18.564Z,13.14
2023-04-09T14:54:57.365Z,13.11
2023-04-09T14:57:35.613Z,13.15
2023-04-09T15:00:16.922Z,13.31
2023-04-09T15:02:57.335Z,13.44
2023-04-09T15:05:31.153Z,13.54
2023-04-09T15:08:01.695Z,13.63
2023-04-09T15:10:40.193Z,13.76
2023-04-09T15:13:19.438Z,13.92
2023-04-09T15:15:59.006Z,14.06
2023-04-09T15:18:37.683Z,14.03
2023-04-09T15:21:16.815Z,13.97
2023-04-09T15:24:00.015Z,14.10
2023-04-09T15:26:30.372Z,14.19
2023-04-09T15:29:12.081Z,14.19
2023-04-09T15:31:51.188Z,14.23
2023-04-09T15:34:29.612Z,14.40
2023-04-09T15:37:08.048Z,14.48
2023-04-09T15:39:47.322Z,14.57
2023-04-09T15:42:27.649Z,14.56
2023-04-09T15:45:06.835Z,14.62
2023-04-09T15:47:49.861Z,14.73
2023-04-09T15:50:29.768Z,14.76
2023-04-09T15:53:08.766Z,14.83
2023-04-09T15:55:47.271Z,14.89
2023-04-09T15:58:26.163Z,14.99
2023-04-09T16:01:14.779Z,15.17
2023-04-09T16:03:54.105Z,15.27
2023-04-09T16:06:32.670Z,15.24
2023-04-09T16:09:03.542Z,15.21
2023-04-09T16:11:44.659Z,15.20
2023-04-09T16:14:23.001Z,15.15
2023-04-09T16:17:01.170Z,15.16
2023-04-09T16:19:31.764Z,15.12
2023-04-09T16:22:04.244Z,15.03
2023-04-09T16:24:42.452Z,14.99
2023-04-09T16:27:20.866Z,14.98
2023-04-09T16:30:00.763Z,14.93
2023-04-09T16:32:39.657Z,14.81
2023-04-09T16:35:17.858Z,14.77
2023-04-09T16:37:55.177Z,14.75
2023-04-09T16:40:33.518Z,14.71
2023-04-09T16:43:12.493Z,14.70
2023-04-09T16:45:50.699Z,14.63
2023-04-09T16:48:29.143Z,14.59
2023-04-09T16:51:09.336Z,14.55
2023-04-09T16:53:48.353Z,14.47
2023-04-09T16:56:27.189Z,14.39
2023-04-09T16:59:05.981Z,14.34
2023-04-09T17:01:45.131Z,14.32
2023-04-09T17:04:24.467Z,14.28
2023-04-09T17:07:03.764Z,14.23
2023-04-09T17:09:42.033Z,14.19
2023-04-09T17:12:24.670Z,14.14
2023-04-09T17:15:03.875Z,14.04
2023-04-09T17:17:43.992Z,14.00
2023-04-09T17:20:22.894Z,13.98
2023-04-09T17:22:57.050Z,13.97
2023-04-09T17:25:28.181Z,13.95
2023-04-09T17:28:06.231Z,13.92
2023-04-09T17:30:38.256Z,13.88
2023-04-09T17:33:16.617Z,13.82
2023-04-09T17:35:55.167Z,13.77
2023-04-09T17:38:27.571Z,13.71
2023-04-09T17:41:07.840Z,13.66
2023-04-09T17:43:46.470Z,13.60
2023-04-09T17:46:24.709Z,13.56
2023-04-09T17:49:04.001Z,13.53
2023-04-09T17:51:34.653Z,13.50
2023-04-09T17:54:06.729Z,13.46
2023-04-09T17:56:46.017Z,13.35
2023-04-09T17:59:24.492Z,13.25
2023-04-09T18:02:04.197Z,13.17
2023-04-09T18:04:43.204Z,13.11
2023-04-09T18:07:22.793Z,12.98
2023-04-09T18:10:01.685Z,12.83
2023-04-09T18:12:39.896Z,12.68
2023-04-09T18:15:19.093Z,12.48
2023-04-09T18:17:58.105Z,12.41
2023-04-09T18:20:30.975Z,12.42
2023-04-09T18:23:10.331Z,12.37
2023-04-09T18:25:51.623Z,12.41
2023-04-09T18:28:30.634Z,12.40
2023-04-09T18:31:12.786Z,12.41
2023-04-09T18:33:50.946Z,12.38
2023-04-09T18:36:29.355Z,12.33
2023-04-09T18:39:09.127Z,12.20
2023-04-09T18:41:48.269Z,11.96
2023-04-09T18:44:26.526Z,11.91
2023-04-09T18:47:06.068Z,11.83
2023-04-09T18:49:37.668Z,11.76
2023-04-09T18:52:10.986Z,11.73
2023-04-09T18:54:48.691Z,11.70
2023-04-09T18:57:27.808Z,11.74
2023-04-09T19:00:07.210Z,11.81
2023-04-09T19:02:45.817Z,11.87
2023-04-09T19:05:25.262Z,11.89
2023-04-09T19:08:07.763Z,11.95
2023-04-09T19:10:48.192Z,11.98
2023-04-09T19:13:27.420Z,11.99
2023-04-09T19:16:07.492Z,12.03
2023-04-09T19:18:45.129Z,11.99
2023-04-09T19:21:23.940Z,11.89
2023-04-09T19:24:05.463Z,11.97
2023-04-09T19:26:44.498Z,12.03
2023-04-09T19:29:22.886Z,12.08
2023-04-09T19:32:01.118Z,12.14
2023-04-09T19:34:39.031Z,12.18
2023-04-09T19:37:19.436Z,12.14
2023-04-09T19:39:59.147Z,12.00
2023-04-09T19:42:37.976Z,11.79
2023-04-09T19:45:18.760Z,11.72
2023-04-09T19:47:57.580Z,11.66
2023-04-09T19:50:44.135Z,11.69
2023-04-09T19:53:24.102Z,11.75
2023-04-09T19:56:02.594Z,11.79
2023-04-09T19:58:42.771Z,11.80
2023-04-09T20:01:21.764Z,11.80
2023-04-09T20:04:00.532Z,11.81
2023-04-09T20:06:39.483Z,11.82
2023-04-09T20:09:18.506Z,11.74
2023-04-09T20:12:04.627Z,11.57
2023-04-09T20:14:42.659Z,11.43
2023-04-09T20:17:21.493Z,11.34
2023-04-09T20:19:59.613Z,11.32
2023-04-09T20:22:37.369Z,11.28
2023-04-09T20:25:16.246Z,11.21
2023-04-09T20:27:46.628Z,11.14
2023-04-09T20:30:18.286Z,11.12
2023-04-09T20:32:50.539Z,11.10
2023-04-09T20:35:29.445Z,11.11
2023-04-09T20:38:08.008Z,11.19
2023-04-09T20:40:40.288Z,11.22
2023-04-09T20:43:20.680Z,11.18
2023-04-09T20:46:00.093Z,11.08
2023-04-09T20:48:38.360Z,11.02
2023-04-09T20:51:17.013Z,10.98
2023-04-09T20:53:55.493Z,10.94
2023-04-09T20:56:34.680Z,10.91
2023-04-09T20:59:12.842Z,10.94
2023-04-09T21:01:51.448Z,11.04
2023-04-09T21:04:29.365Z,11.11
2023-04-09T21:07:07.560Z,11.19
2023-04-09T21:09:39.056Z,11.15
2023-04-09T21:12:11.709Z,11.10
2023-04-09T21:14:51.398Z,11.13
2023-04-09T21:17:30.125Z,11.07
2023-04-09T21:20:09.081Z,10.85
2023-04-09T21:22:47.775Z,10.74
2023-04-09T21:25:28.950Z,10.73
2023-04-09T21:28:07.299Z,10.77
2023-04-09T21:30:38.486Z,10.79
2023-04-09T21:33:17.955Z,10.80
2023-04-09T21:35:59.614Z,10.82
2023-04-09T21:38:38.912Z,10.79
2023-04-09T21:41:18.421Z,10.77
2023-04-09T21:43:56.989Z,10.77
2023-04-09T21:46:36.688Z,10.73
2023-04-09T21:49:07.875Z,10.69
2023-04-09T21:51:49.508Z,10.70
2023-04-09T21:54:28.947Z,10.72
2023-04-09T21:57:08.524Z,10.73
2023-04-09T21:59:47.357Z,10.66
2023-04-09T22:02:18.092Z,10.59
2023-04-09T22:04:54.566Z,10.55
2023-04-09T22:07:33.654Z,10.54
2023-04-09T22:10:13.413Z,10.48
2023-04-09T22:12:52.034Z,10.38
2023-04-09T22:15:31.102Z,10.28
2023-04-09T22:18:09.513Z,10.31
2023-04-09T22:20:48.253Z,10.32
2023-04-09T22:23:27.351Z,10.26
2023-04-09T22:26:11.019Z,10.22
2023-04-09T22:28:50.920Z,10.18
2023-04-09T22:31:29.598Z,10.16
2023-04-09T22:34:20.013Z,10.12
2023-04-09T22:37:02.955Z,10.09
2023-04-09T22:39:34.085Z,10.07
2023-04-09T22:42:05.546Z,10.09
2023-04-09T22:44:45.210Z,10.07
2023-04-09T22:47:24.588Z,10.02
2023-04-09T22:50:03.573Z,9.95
2023-04-09T22:52:41.858Z,9.89
2023-04-09T22:55:19.869Z,9.85
2023-04-09T22:57:58.506Z,9.85
2023-04-09T23:00:37.009Z,9.88
2023-04-09T23:03:15.201Z,9.86
2023-04-09T23:05:54.243Z,9.78
2023-04-09T23:08:32.623Z,9.77
2023-04-09T23:11:11.253Z,9.75
2023-04-09T23:13:50.334Z,9.69
2023-04-09T23:16:28.458Z,9.61
2023-04-09T23:19:07.307Z,9.46
2023-04-09T23:21:47.178Z,9.37
2023-04-09T23:24:25.886Z,9.39
2023-04-09T23:26:56.973Z,9.42
2023-04-09T23:29:31.707Z,9.45
2023-04-09T23:32:10.350Z,9.50
2023-04-09T23:34:49.371Z,9.48
2023-04-09T23:37:27.675Z,9.44
2023-04-09T23:40:01.544Z,9.43
2023-04-09T23:42:38.288Z,9.40
2023-04-09T23:45:17.314Z,9.34
2023-04-09T23:47:55.012Z,9.28
2023-04-09T23:50:32.508Z,9.29
2023-04-09T23:53:11.941Z,9.29
2023-04-09T23:55:51.225Z,9.28
2023-04-09T23:58:30.157Z,9.29
